sensor_id;sensor_type;location;lat;lon;timestamp;P1;durP1;ratioP1;P2;durP2;ratioP2
72427;SDS011;60419;48.880;18.036;2022-08-02T00:01:09;9.48;;;7.45;;
72427;SDS011;60419;48.880;18.036;2022-08-02T00:03:54;10.95;;;8.25;;
72427;SDS011;60419;48.880;18.036;2022-08-02T00:06:40;10.73;;;7.90;;
72427;SDS011;60419;48.880;18.036;2022-08-02T00:09:25;12.73;;;9.30;;
72427;SDS011;60419;48.880;18.036;2022-08-02T00:12:11;12.00;;;9.77;;
72427;SDS011;60419;48.880;18.036;2022-08-02T00:14:56;15.23;;;9.15;;
72427;SDS011;60419;48.880;18.036;2022-08-02T00:17:43;10.93;;;8.95;;
72427;SDS011;60419;48.880;18.036;2022-08-02T00:20:28;12.52;;;9.73;;
72427;SDS011;60419;48.880;18.036;2022-08-02T00:23:14;11.82;;;9.18;;
72427;SDS011;60419;48.880;18.036;2022-08-02T00:25:59;11.95;;;9.10;;
72427;SDS011;60419;48.880;18.036;2022-08-02T00:28:45;9.98;;;8.98;;
72427;SDS011;60419;48.880;18.036;2022-08-02T00:31:30;10.30;;;8.90;;
72427;SDS011;60419;48.880;18.036;2022-08-02T00:34:15;9.27;;;7.70;;
72427;SDS011;60419;48.880;18.036;2022-08-02T00:37:01;8.43;;;7.50;;
72427;SDS011;60419;48.880;18.036;2022-08-02T00:39:46;10.00;;;7.40;;
72427;SDS011;60419;48.880;18.036;2022-08-02T00:42:32;11.88;;;7.78;;
72427;SDS011;60419;48.880;18.036;2022-08-02T00:45:17;9.25;;;8.25;;
72427;SDS011;60419;48.880;18.036;2022-08-02T00:48:03;11.73;;;8.80;;
72427;SDS011;60419;48.880;18.036;2022-08-02T00:50:50;10.20;;;9.10;;
72427;SDS011;60419;48.880;18.036;2022-08-02T00:53:36;12.88;;;9.90;;
72427;SDS011;60419;48.880;18.036;2022-08-02T00:56:21;11.57;;;10.25;;
72427;SDS011;60419;48.880;18.036;2022-08-02T00:59:07;13.05;;;10.23;;
72427;SDS011;60419;48.880;18.036;2022-08-02T01:01:52;12.70;;;10.80;;
72427;SDS011;60419;48.880;18.036;2022-08-02T01:04:39;13.32;;;11.10;;
72427;SDS011;60419;48.880;18.036;2022-08-02T01:07:25;13.88;;;12.00;;
72427;SDS011;60419;48.880;18.036;2022-08-02T01:10:10;15.27;;;11.57;;
72427;SDS011;60419;48.880;18.036;2022-08-02T01:12:56;14.57;;;11.73;;
72427;SDS011;60419;48.880;18.036;2022-08-02T01:15:42;14.00;;;11.15;;
72427;SDS011;60419;48.880;18.036;2022-08-02T01:28:00;14.40;;;10.20;;
72427;SDS011;60419;48.880;18.036;2022-08-02T01:31:06;12.90;;;11.33;;
72427;SDS011;60419;48.880;18.036;2022-08-02T01:34:06;19.02;;;12.18;;
72427;SDS011;60419;48.880;18.036;2022-08-02T01:40:33;14.88;;;13.30;;
72427;SDS011;60419;48.880;18.036;2022-08-02T01:43:21;15.40;;;13.13;;
72427;SDS011;60419;48.880;18.036;2022-08-02T01:46:09;15.85;;;13.82;;
72427;SDS011;60419;48.880;18.036;2022-08-02T01:48:58;19.23;;;12.85;;
72427;SDS011;60419;48.880;18.036;2022-08-02T01:51:48;16.30;;;13.30;;
72427;SDS011;60419;48.880;18.036;2022-08-02T01:55:06;13.18;;;11.85;;
72427;SDS011;60419;48.880;18.036;2022-08-02T01:57:57;13.35;;;11.88;;
72427;SDS011;60419;48.880;18.036;2022-08-02T02:00:45;13.52;;;11.32;;
72427;SDS011;60419;48.880;18.036;2022-08-02T02:03:32;13.63;;;12.15;;
72427;SDS011;60419;48.880;18.036;2022-08-02T02:06:19;16.40;;;12.70;;
72427;SDS011;60419;48.880;18.036;2022-08-02T02:09:07;17.48;;;14.88;;
72427;SDS011;60419;48.880;18.036;2022-08-02T02:11:53;23.15;;;15.95;;
72427;SDS011;60419;48.880;18.036;2022-08-02T02:14:41;17.90;;;16.00;;
72427;SDS011;60419;48.880;18.036;2022-08-02T02:17:28;21.15;;;17.30;;
72427;SDS011;60419;48.880;18.036;2022-08-02T02:20:17;22.38;;;16.75;;
72427;SDS011;60419;48.880;18.036;2022-08-02T02:23:04;18.33;;;16.23;;
72427;SDS011;60419;48.880;18.036;2022-08-02T02:25:50;18.10;;;16.00;;
72427;SDS011;60419;48.880;18.036;2022-08-02T02:28:38;18.17;;;15.35;;
72427;SDS011;60419;48.880;18.036;2022-08-02T02:31:24;20.60;;;15.20;;
72427;SDS011;60419;48.880;18.036;2022-08-02T02:34:14;17.75;;;14.60;;
72427;SDS011;60419;48.880;18.036;2022-08-02T02:37:04;20.73;;;14.57;;
72427;SDS011;60419;48.880;18.036;2022-08-02T02:39:56;17.00;;;15.27;;
72427;SDS011;60419;48.880;18.036;2022-08-02T02:42:42;17.08;;;15.25;;
72427;SDS011;60419;48.880;18.036;2022-08-02T02:45:28;17.15;;;14.95;;
72427;SDS011;60419;48.880;18.036;2022-08-02T02:48:15;15.45;;;13.82;;
72427;SDS011;60419;48.880;18.036;2022-08-02T02:51:05;16.65;;;12.82;;
72427;SDS011;60419;48.880;18.036;2022-08-02T02:53:52;15.70;;;14.10;;
72427;SDS011;60419;48.880;18.036;2022-08-02T02:56:39;20.85;;;12.90;;
72427;SDS011;60419;48.880;18.036;2022-08-02T02:59:26;17.85;;;13.05;;
72427;SDS011;60419;48.880;18.036;2022-08-02T03:02:13;15.02;;;12.20;;
72427;SDS011;60419;48.880;18.036;2022-08-02T03:04:58;13.90;;;12.18;;
72427;SDS011;60419;48.880;18.036;2022-08-02T03:07:46;15.27;;;12.35;;
72427;SDS011;60419;48.880;18.036;2022-08-02T03:10:32;13.48;;;11.57;;
72427;SDS011;60419;48.880;18.036;2022-08-02T03:13:18;13.35;;;11.48;;
72427;SDS011;60419;48.880;18.036;2022-08-02T03:16:04;14.68;;;12.70;;
72427;SDS011;60419;48.880;18.036;2022-08-02T03:18:51;18.42;;;13.68;;
72427;SDS011;60419;48.880;18.036;2022-08-02T03:21:36;15.32;;;13.10;;
72427;SDS011;60419;48.880;18.036;2022-08-02T03:24:22;17.33;;;13.90;;
72427;SDS011;60419;48.880;18.036;2022-08-02T03:27:07;17.23;;;13.02;;
72427;SDS011;60419;48.880;18.036;2022-08-02T03:29:53;15.82;;;14.13;;
72427;SDS011;60419;48.880;18.036;2022-08-02T03:32:39;17.67;;;14.20;;
72427;SDS011;60419;48.880;18.036;2022-08-02T03:35:26;16.42;;;14.32;;
72427;SDS011;60419;48.880;18.036;2022-08-02T03:38:12;19.27;;;13.68;;
72427;SDS011;60419;48.880;18.036;2022-08-02T03:41:00;14.15;;;12.65;;
72427;SDS011;60419;48.880;18.036;2022-08-02T03:43:48;16.00;;;13.55;;
72427;SDS011;60419;48.880;18.036;2022-08-02T03:46:34;15.30;;;13.32;;
72427;SDS011;60419;48.880;18.036;2022-08-02T03:49:23;15.20;;;11.98;;
72427;SDS011;60419;48.880;18.036;2022-08-02T03:52:09;15.55;;;12.82;;
72427;SDS011;60419;48.880;18.036;2022-08-02T03:54:55;15.10;;;13.38;;
72427;SDS011;60419;48.880;18.036;2022-08-02T03:57:41;16.75;;;14.10;;
72427;SDS011;60419;48.880;18.036;2022-08-02T04:00:27;18.52;;;13.20;;
72427;SDS011;60419;48.880;18.036;2022-08-02T04:03:13;14.60;;;12.98;;
72427;SDS011;60419;48.880;18.036;2022-08-02T04:05:59;16.08;;;12.20;;
72427;SDS011;60419;48.880;18.036;2022-08-02T04:08:45;16.48;;;12.65;;
72427;SDS011;60419;48.880;18.036;2022-08-02T04:11:30;16.73;;;13.93;;
72427;SDS011;60419;48.880;18.036;2022-08-02T04:14:15;17.05;;;13.45;;
72427;SDS011;60419;48.880;18.036;2022-08-02T04:17:01;19.67;;;14.40;;
72427;SDS011;60419;48.880;18.036;2022-08-02T04:19:55;18.10;;;14.70;;
72427;SDS011;60419;48.880;18.036;2022-08-02T04:22:54;22.13;;;15.45;;
72427;SDS011;60419;48.880;18.036;2022-08-02T04:25:51;18.95;;;14.43;;
72427;SDS011;60419;48.880;18.036;2022-08-02T04:28:37;19.42;;;15.55;;
72427;SDS011;60419;48.880;18.036;2022-08-02T04:31:24;16.63;;;14.82;;
72427;SDS011;60419;48.880;18.036;2022-08-02T04:34:10;18.60;;;15.48;;
72427;SDS011;60419;48.880;18.036;2022-08-02T04:36:56;16.60;;;14.85;;
72427;SDS011;60419;48.880;18.036;2022-08-02T04:39:43;18.27;;;14.25;;
72427;SDS011;60419;48.880;18.036;2022-08-02T04:42:28;17.73;;;13.98;;
72427;SDS011;60419;48.880;18.036;2022-08-02T04:45:13;19.13;;;13.57;;
72427;SDS011;60419;48.880;18.036;2022-08-02T04:48:00;14.48;;;12.23;;
72427;SDS011;60419;48.880;18.036;2022-08-02T04:50:45;13.30;;;12.00;;
72427;SDS011;60419;48.880;18.036;2022-08-02T04:53:31;15.65;;;11.88;;
72427;SDS011;60419;48.880;18.036;2022-08-02T04:56:16;15.82;;;12.05;;
72427;SDS011;60419;48.880;18.036;2022-08-02T04:59:01;13.40;;;11.90;;
72427;SDS011;60419;48.880;18.036;2022-08-02T05:01:47;12.88;;;10.98;;
72427;SDS011;60419;48.880;18.036;2022-08-02T05:04:32;12.57;;;11.00;;
72427;SDS011;60419;48.880;18.036;2022-08-02T05:07:18;13.65;;;12.07;;
72427;SDS011;60419;48.880;18.036;2022-08-02T05:10:03;14.20;;;11.52;;
72427;SDS011;60419;48.880;18.036;2022-08-02T05:12:49;14.80;;;10.75;;
72427;SDS011;60419;48.880;18.036;2022-08-02T05:15:34;12.45;;;9.82;;
72427;SDS011;60419;48.880;18.036;2022-08-02T05:18:20;11.98;;;9.18;;
72427;SDS011;60419;48.880;18.036;2022-08-02T05:21:05;11.25;;;9.90;;
72427;SDS011;60419;48.880;18.036;2022-08-02T05:23:51;14.30;;;10.40;;
72427;SDS011;60419;48.880;18.036;2022-08-02T05:26:36;12.20;;;10.50;;
72427;SDS011;60419;48.880;18.036;2022-08-02T05:29:21;12.90;;;10.15;;
72427;SDS011;60419;48.880;18.036;2022-08-02T05:32:07;13.13;;;11.02;;
72427;SDS011;60419;48.880;18.036;2022-08-02T05:34:52;15.27;;;11.00;;
72427;SDS011;60419;48.880;18.036;2022-08-02T05:37:38;13.20;;;11.27;;
72427;SDS011;60419;48.880;18.036;2022-08-02T05:40:23;13.07;;;10.27;;
72427;SDS011;60419;48.880;18.036;2022-08-02T05:43:12;12.80;;;11.27;;
72427;SDS011;60419;48.880;18.036;2022-08-02T05:45:58;12.43;;;10.10;;
72427;SDS011;60419;48.880;18.036;2022-08-02T05:48:44;12.40;;;9.43;;
72427;SDS011;60419;48.880;18.036;2022-08-02T05:54:26;10.88;;;9.75;;
72427;SDS011;60419;48.880;18.036;2022-08-02T05:57:19;10.90;;;8.87;;
72427;SDS011;60419;48.880;18.036;2022-08-02T06:00:14;9.25;;;8.25;;
72427;SDS011;60419;48.880;18.036;2022-08-02T06:06:04;9.40;;;7.85;;
72427;SDS011;60419;48.880;18.036;2022-08-02T06:08:59;11.13;;;8.30;;
72427;SDS011;60419;48.880;18.036;2022-08-02T06:12:03;8.63;;;7.72;;
72427;SDS011;60419;48.880;18.036;2022-08-02T06:14:51;9.25;;;6.90;;
72427;SDS011;60419;48.880;18.036;2022-08-02T06:17:39;8.07;;;7.07;;
72427;SDS011;60419;48.880;18.036;2022-08-02T06:20:25;7.95;;;7.15;;
72427;SDS011;60419;48.880;18.036;2022-08-02T06:23:11;9.40;;;6.85;;
72427;SDS011;60419;48.880;18.036;2022-08-02T06:25:58;7.82;;;6.80;;
72427;SDS011;60419;48.880;18.036;2022-08-02T06:28:45;10.00;;;6.68;;
72427;SDS011;60419;48.880;18.036;2022-08-02T06:31:33;9.00;;;7.00;;
72427;SDS011;60419;48.880;18.036;2022-08-02T06:34:19;8.27;;;6.97;;
72427;SDS011;60419;48.880;18.036;2022-08-02T06:37:11;7.40;;;6.30;;
72427;SDS011;60419;48.880;18.036;2022-08-02T06:40:10;8.32;;;6.35;;
72427;SDS011;60419;48.880;18.036;2022-08-02T06:43:17;8.93;;;6.60;;
72427;SDS011;60419;48.880;18.036;2022-08-02T06:46:07;6.25;;;5.53;;
72427;SDS011;60419;48.880;18.036;2022-08-02T06:48:53;7.82;;;6.47;;
72427;SDS011;60419;48.880;18.036;2022-08-02T06:51:39;7.43;;;5.85;;
72427;SDS011;60419;48.880;18.036;2022-08-02T06:54:24;7.65;;;6.20;;
72427;SDS011;60419;48.880;18.036;2022-08-02T06:57:10;6.22;;;5.32;;
72427;SDS011;60419;48.880;18.036;2022-08-02T06:59:55;6.72;;;5.45;;
72427;SDS011;60419;48.880;18.036;2022-08-02T07:02:42;6.95;;;5.63;;
72427;SDS011;60419;48.880;18.036;2022-08-02T07:05:27;6.72;;;5.05;;
72427;SDS011;60419;48.880;18.036;2022-08-02T07:08:16;6.10;;;4.80;;
72427;SDS011;60419;48.880;18.036;2022-08-02T07:11:03;6.25;;;4.40;;
72427;SDS011;60419;48.880;18.036;2022-08-02T07:13:49;5.30;;;4.55;;
72427;SDS011;60419;48.880;18.036;2022-08-02T07:16:35;5.75;;;3.90;;
72427;SDS011;60419;48.880;18.036;2022-08-02T07:19:20;5.55;;;4.07;;
72427;SDS011;60419;48.880;18.036;2022-08-02T07:22:05;4.55;;;3.40;;
72427;SDS011;60419;48.880;18.036;2022-08-02T07:24:51;4.25;;;3.70;;
72427;SDS011;60419;48.880;18.036;2022-08-02T07:27:37;5.47;;;3.70;;
72427;SDS011;60419;48.880;18.036;2022-08-02T07:30:22;4.47;;;3.70;;
72427;SDS011;60419;48.880;18.036;2022-08-02T07:33:08;4.90;;;3.40;;
72427;SDS011;60419;48.880;18.036;2022-08-02T07:35:54;6.35;;;3.63;;
72427;SDS011;60419;48.880;18.036;2022-08-02T07:38:41;4.60;;;3.40;;
72427;SDS011;60419;48.880;18.036;2022-08-02T07:41:26;5.03;;;3.40;;
72427;SDS011;60419;48.880;18.036;2022-08-02T07:44:12;4.78;;;3.00;;
72427;SDS011;60419;48.880;18.036;2022-08-02T07:46:57;4.10;;;3.22;;
72427;SDS011;60419;48.880;18.036;2022-08-02T07:49:42;5.43;;;3.53;;
72427;SDS011;60419;48.880;18.036;2022-08-02T07:52:28;5.03;;;3.50;;
72427;SDS011;60419;48.880;18.036;2022-08-02T07:55:14;4.60;;;3.15;;
72427;SDS011;60419;48.880;18.036;2022-08-02T07:58:01;5.63;;;3.35;;
72427;SDS011;60419;48.880;18.036;2022-08-02T08:00:48;4.22;;;3.13;;
72427;SDS011;60419;48.880;18.036;2022-08-02T08:03:33;7.32;;;3.38;;
72427;SDS011;60419;48.880;18.036;2022-08-02T08:06:18;3.75;;;3.03;;
72427;SDS011;60419;48.880;18.036;2022-08-02T08:09:04;5.30;;;3.05;;
72427;SDS011;60419;48.880;18.036;2022-08-02T08:11:49;4.47;;;3.35;;
72427;SDS011;60419;48.880;18.036;2022-08-02T08:14:35;4.47;;;3.55;;
72427;SDS011;60419;48.880;18.036;2022-08-02T08:17:21;6.15;;;3.63;;
72427;SDS011;60419;48.880;18.036;2022-08-02T08:20:07;4.57;;;3.10;;
72427;SDS011;60419;48.880;18.036;2022-08-02T08:22:52;3.67;;;2.83;;
72427;SDS011;60419;48.880;18.036;2022-08-02T08:25:38;4.85;;;2.92;;
72427;SDS011;60419;48.880;18.036;2022-08-02T08:28:24;4.53;;;3.25;;
72427;SDS011;60419;48.880;18.036;2022-08-02T08:31:09;3.70;;;2.90;;
72427;SDS011;60419;48.880;18.036;2022-08-02T08:33:55;3.95;;;3.03;;
72427;SDS011;60419;48.880;18.036;2022-08-02T08:36:40;4.25;;;3.15;;
72427;SDS011;60419;48.880;18.036;2022-08-02T08:39:26;4.63;;;3.40;;
72427;SDS011;60419;48.880;18.036;2022-08-02T08:42:11;5.40;;;3.63;;
72427;SDS011;60419;48.880;18.036;2022-08-02T08:44:57;4.05;;;2.67;;
72427;SDS011;60419;48.880;18.036;2022-08-02T08:47:44;3.72;;;2.30;;
72427;SDS011;60419;48.880;18.036;2022-08-02T08:50:35;2.65;;;1.83;;
72427;SDS011;60419;48.880;18.036;2022-08-02T08:53:27;2.60;;;1.75;;
72427;SDS011;60419;48.880;18.036;2022-08-02T08:56:15;2.00;;;1.52;;
72427;SDS011;60419;48.880;18.036;2022-08-02T08:59:02;1.90;;;1.40;;
72427;SDS011;60419;48.880;18.036;2022-08-02T09:01:48;2.00;;;1.45;;
72427;SDS011;60419;48.880;18.036;2022-08-02T09:04:35;2.17;;;1.33;;
72427;SDS011;60419;48.880;18.036;2022-08-02T09:07:21;3.25;;;1.70;;
72427;SDS011;60419;48.880;18.036;2022-08-02T09:13:27;2.90;;;1.40;;
72427;SDS011;60419;48.880;18.036;2022-08-02T09:16:13;4.13;;;1.58;;
72427;SDS011;60419;48.880;18.036;2022-08-02T09:19:00;6.03;;;1.63;;
72427;SDS011;60419;48.880;18.036;2022-08-02T09:22:08;3.55;;;1.38;;
72427;SDS011;60419;48.880;18.036;2022-08-02T09:24:54;3.28;;;1.30;;
72427;SDS011;60419;48.880;18.036;2022-08-02T09:27:40;1.60;;;1.23;;
72427;SDS011;60419;48.880;18.036;2022-08-02T09:30:25;3.92;;;1.10;;
72427;SDS011;60419;48.880;18.036;2022-08-02T09:33:11;2.05;;;1.20;;
72427;SDS011;60419;48.880;18.036;2022-08-02T09:36:03;1.42;;;1.10;;
72427;SDS011;60419;48.880;18.036;2022-08-02T09:38:59;1.70;;;1.10;;
72427;SDS011;60419;48.880;18.036;2022-08-02T09:41:50;1.73;;;1.20;;
72427;SDS011;60419;48.880;18.036;2022-08-02T09:44:36;4.28;;;1.10;;
72427;SDS011;60419;48.880;18.036;2022-08-02T09:47:22;1.60;;;1.10;;
72427;SDS011;60419;48.880;18.036;2022-08-02T09:50:12;1.85;;;1.20;;
72427;SDS011;60419;48.880;18.036;2022-08-02T09:52:57;3.10;;;1.10;;
72427;SDS011;60419;48.880;18.036;2022-08-02T09:55:43;1.55;;;1.15;;
72427;SDS011;60419;48.880;18.036;2022-08-02T09:58:40;1.60;;;1.00;;
72427;SDS011;60419;48.880;18.036;2022-08-02T10:01:32;1.85;;;1.20;;
72427;SDS011;60419;48.880;18.036;2022-08-02T10:04:22;1.17;;;0.90;;
72427;SDS011;60419;48.880;18.036;2022-08-02T10:07:08;1.48;;;1.00;;
72427;SDS011;60419;48.880;18.036;2022-08-02T10:09:54;1.08;;;0.90;;
72427;SDS011;60419;48.880;18.036;2022-08-02T10:12:41;1.23;;;0.82;;
72427;SDS011;60419;48.880;18.036;2022-08-02T10:15:26;1.75;;;0.90;;
72427;SDS011;60419;48.880;18.036;2022-08-02T10:18:11;7.82;;;1.77;;
72427;SDS011;60419;48.880;18.036;2022-08-02T10:20:57;1.98;;;1.00;;
72427;SDS011;60419;48.880;18.036;2022-08-02T10:23:47;1.67;;;0.80;;
72427;SDS011;60419;48.880;18.036;2022-08-02T10:26:34;2.33;;;1.10;;
72427;SDS011;60419;48.880;18.036;2022-08-02T10:29:26;4.05;;;1.08;;
72427;SDS011;60419;48.880;18.036;2022-08-02T10:32:18;1.70;;;0.95;;
72427;SDS011;60419;48.880;18.036;2022-08-02T10:35:10;1.60;;;0.80;;
72427;SDS011;60419;48.880;18.036;2022-08-02T10:38:03;3.67;;;1.17;;
72427;SDS011;60419;48.880;18.036;2022-08-02T10:40:52;0.88;;;0.70;;
72427;SDS011;60419;48.880;18.036;2022-08-02T10:43:39;1.98;;;0.80;;
72427;SDS011;60419;48.880;18.036;2022-08-02T10:46:30;0.82;;;0.63;;
72427;SDS011;60419;48.880;18.036;2022-08-02T10:49:19;1.45;;;0.80;;
72427;SDS011;60419;48.880;18.036;2022-08-02T10:52:07;1.05;;;0.70;;
72427;SDS011;60419;48.880;18.036;2022-08-02T10:57:42;1.83;;;0.90;;
72427;SDS011;60419;48.880;18.036;2022-08-02T11:00:28;1.38;;;0.80;;
72427;SDS011;60419;48.880;18.036;2022-08-02T11:15:00;1.23;;;0.80;;
72427;SDS011;60419;48.880;18.036;2022-08-02T11:17:57;0.82;;;0.70;;
72427;SDS011;60419;48.880;18.036;2022-08-02T11:20:43;2.85;;;0.73;;
72427;SDS011;60419;48.880;18.036;2022-08-02T11:29:15;2.45;;;0.90;;
72427;SDS011;60419;48.880;18.036;2022-08-02T11:32:01;0.93;;;0.73;;
72427;SDS011;60419;48.880;18.036;2022-08-02T11:34:49;0.95;;;0.85;;
72427;SDS011;60419;48.880;18.036;2022-08-02T11:37:38;2.95;;;1.08;;
72427;SDS011;60419;48.880;18.036;2022-08-02T11:40:28;2.17;;;0.80;;
72427;SDS011;60419;48.880;18.036;2022-08-02T11:43:23;1.58;;;0.77;;
72427;SDS011;60419;48.880;18.036;2022-08-02T11:46:11;0.90;;;0.70;;
72427;SDS011;60419;48.880;18.036;2022-08-02T11:49:09;2.75;;;0.88;;
72427;SDS011;60419;48.880;18.036;2022-08-02T11:52:02;2.50;;;0.80;;
72427;SDS011;60419;48.880;18.036;2022-08-02T11:54:53;1.83;;;0.90;;
72427;SDS011;60419;48.880;18.036;2022-08-02T11:57:38;1.20;;;0.80;;
72427;SDS011;60419;48.880;18.036;2022-08-02T12:00:24;1.00;;;0.80;;
72427;SDS011;60419;48.880;18.036;2022-08-02T12:03:10;1.83;;;0.85;;
72427;SDS011;60419;48.880;18.036;2022-08-02T12:05:55;1.90;;;0.80;;
72427;SDS011;60419;48.880;18.036;2022-08-02T12:08:41;3.88;;;1.13;;
72427;SDS011;60419;48.880;18.036;2022-08-02T12:11:26;4.00;;;1.23;;
72427;SDS011;60419;48.880;18.036;2022-08-02T12:14:11;2.15;;;1.15;;
72427;SDS011;60419;48.880;18.036;2022-08-02T12:16:57;1.52;;;0.90;;
72427;SDS011;60419;48.880;18.036;2022-08-02T12:20:02;1.80;;;1.10;;
72427;SDS011;60419;48.880;18.036;2022-08-02T12:22:47;6.45;;;1.50;;
72427;SDS011;60419;48.880;18.036;2022-08-02T12:25:33;1.38;;;1.00;;
72427;SDS011;60419;48.880;18.036;2022-08-02T12:28:19;2.38;;;1.10;;
72427;SDS011;60419;48.880;18.036;2022-08-02T12:31:10;1.55;;;0.98;;
72427;SDS011;60419;48.880;18.036;2022-08-02T12:34:01;1.60;;;1.00;;
72427;SDS011;60419;48.880;18.036;2022-08-02T12:37:00;3.33;;;1.10;;
72427;SDS011;60419;48.880;18.036;2022-08-02T12:39:46;1.40;;;1.00;;
72427;SDS011;60419;48.880;18.036;2022-08-02T12:42:44;1.65;;;0.90;;
72427;SDS011;60419;48.880;18.036;2022-08-02T12:45:32;1.48;;;0.90;;
72427;SDS011;60419;48.880;18.036;2022-08-02T12:48:33;1.58;;;0.98;;
72427;SDS011;60419;48.880;18.036;2022-08-02T12:51:24;2.45;;;1.30;;
72427;SDS011;60419;48.880;18.036;2022-08-02T12:54:17;2.78;;;1.20;;
72427;SDS011;60419;48.880;18.036;2022-08-02T12:57:11;1.77;;;1.08;;
72427;SDS011;60419;48.880;18.036;2022-08-02T12:59:58;2.90;;;1.10;;
72427;SDS011;60419;48.880;18.036;2022-08-02T13:02:43;2.50;;;1.20;;
72427;SDS011;60419;48.880;18.036;2022-08-02T13:05:29;4.30;;;1.38;;
72427;SDS011;60419;48.880;18.036;2022-08-02T13:08:14;2.30;;;1.50;;
72427;SDS011;60419;48.880;18.036;2022-08-02T13:11:00;2.15;;;1.42;;
72427;SDS011;60419;48.880;18.036;2022-08-02T13:13:45;2.45;;;1.30;;
72427;SDS011;60419;48.880;18.036;2022-08-02T13:16:31;3.45;;;1.45;;
72427;SDS011;60419;48.880;18.036;2022-08-02T13:19:17;1.67;;;1.10;;
72427;SDS011;60419;48.880;18.036;2022-08-02T13:22:02;2.30;;;1.30;;
72427;SDS011;60419;48.880;18.036;2022-08-02T13:24:47;4.03;;;1.30;;
72427;SDS011;60419;48.880;18.036;2022-08-02T13:27:35;2.90;;;1.50;;
72427;SDS011;60419;48.880;18.036;2022-08-02T13:30:22;2.88;;;1.80;;
72427;SDS011;60419;48.880;18.036;2022-08-02T13:33:07;4.90;;;1.75;;
72427;SDS011;60419;48.880;18.036;2022-08-02T13:35:53;5.53;;;1.88;;
72427;SDS011;60419;48.880;18.036;2022-08-02T13:38:38;2.92;;;1.75;;
72427;SDS011;60419;48.880;18.036;2022-08-02T13:41:24;3.15;;;1.80;;
72427;SDS011;60419;48.880;18.036;2022-08-02T13:44:09;2.47;;;1.70;;
72427;SDS011;60419;48.880;18.036;2022-08-02T13:46:55;2.53;;;1.80;;
72427;SDS011;60419;48.880;18.036;2022-08-02T13:49:41;4.28;;;2.03;;
72427;SDS011;60419;48.880;18.036;2022-08-02T13:52:26;3.58;;;2.03;;
72427;SDS011;60419;48.880;18.036;2022-08-02T13:55:12;4.78;;;1.75;;
72427;SDS011;60419;48.880;18.036;2022-08-02T13:57:57;3.33;;;1.92;;
72427;SDS011;60419;48.880;18.036;2022-08-02T14:00:43;4.18;;;2.25;;
72427;SDS011;60419;48.880;18.036;2022-08-02T14:03:28;2.53;;;1.83;;
72427;SDS011;60419;48.880;18.036;2022-08-02T14:06:15;2.85;;;2.00;;
72427;SDS011;60419;48.880;18.036;2022-08-02T14:09:00;4.28;;;2.10;;
72427;SDS011;60419;48.880;18.036;2022-08-02T14:11:45;2.63;;;1.70;;
72427;SDS011;60419;48.880;18.036;2022-08-02T14:14:31;3.80;;;2.15;;
72427;SDS011;60419;48.880;18.036;2022-08-02T14:17:16;3.65;;;1.80;;
72427;SDS011;60419;48.880;18.036;2022-08-02T14:20:02;3.00;;;1.85;;
72427;SDS011;60419;48.880;18.036;2022-08-02T14:22:48;3.47;;;1.80;;
72427;SDS011;60419;48.880;18.036;2022-08-02T14:25:33;2.55;;;1.70;;
72427;SDS011;60419;48.880;18.036;2022-08-02T14:28:19;4.18;;;1.80;;
72427;SDS011;60419;48.880;18.036;2022-08-02T14:31:04;2.30;;;1.70;;
72427;SDS011;60419;48.880;18.036;2022-08-02T14:33:50;2.58;;;1.50;;
72427;SDS011;60419;48.880;18.036;2022-08-02T14:36:35;4.22;;;2.10;;
72427;SDS011;60419;48.880;18.036;2022-08-02T14:39:22;3.45;;;1.85;;
72427;SDS011;60419;48.880;18.036;2022-08-02T14:42:07;3.55;;;1.90;;
72427;SDS011;60419;48.880;18.036;2022-08-02T14:44:53;2.42;;;1.90;;
72427;SDS011;60419;48.880;18.036;2022-08-02T14:47:38;3.47;;;1.60;;
72427;SDS011;60419;48.880;18.036;2022-08-02T14:50:23;2.60;;;1.50;;
72427;SDS011;60419;48.880;18.036;2022-08-02T14:53:09;3.70;;;1.42;;
72427;SDS011;60419;48.880;18.036;2022-08-02T14:55:54;3.13;;;1.77;;
72427;SDS011;60419;48.880;18.036;2022-08-02T14:58:39;2.67;;;1.50;;
72427;SDS011;60419;48.880;18.036;2022-08-02T15:01:25;4.60;;;1.58;;
72427;SDS011;60419;48.880;18.036;2022-08-02T15:04:10;3.85;;;1.70;;
72427;SDS011;60419;48.880;18.036;2022-08-02T15:06:56;3.10;;;1.30;;
72427;SDS011;60419;48.880;18.036;2022-08-02T15:09:41;3.75;;;1.50;;
72427;SDS011;60419;48.880;18.036;2022-08-02T15:12:27;2.58;;;1.40;;
72427;SDS011;60419;48.880;18.036;2022-08-02T15:15:12;2.05;;;1.30;;
72427;SDS011;60419;48.880;18.036;2022-08-02T15:17:57;2.80;;;1.45;;
72427;SDS011;60419;48.880;18.036;2022-08-02T15:20:43;2.25;;;1.52;;
72427;SDS011;60419;48.880;18.036;2022-08-02T15:23:30;2.00;;;1.42;;
72427;SDS011;60419;48.880;18.036;2022-08-02T15:26:16;3.08;;;1.48;;
72427;SDS011;60419;48.880;18.036;2022-08-02T15:29:04;1.85;;;1.30;;
72427;SDS011;60419;48.880;18.036;2022-08-02T15:31:50;1.98;;;1.42;;
72427;SDS011;60419;48.880;18.036;2022-08-02T15:34:35;2.15;;;1.40;;
72427;SDS011;60419;48.880;18.036;2022-08-02T15:37:21;2.58;;;1.50;;
72427;SDS011;60419;48.880;18.036;2022-08-02T15:40:06;2.40;;;1.55;;
72427;SDS011;60419;48.880;18.036;2022-08-02T15:42:52;3.72;;;1.42;;
72427;SDS011;60419;48.880;18.036;2022-08-02T15:45:38;3.10;;;1.55;;
72427;SDS011;60419;48.880;18.036;2022-08-02T15:48:24;2.03;;;1.50;;
72427;SDS011;60419;48.880;18.036;2022-08-02T15:51:09;3.28;;;1.70;;
72427;SDS011;60419;48.880;18.036;2022-08-02T15:53:55;2.45;;;1.50;;
72427;SDS011;60419;48.880;18.036;2022-08-02T15:56:40;1.92;;;1.35;;
72427;SDS011;60419;48.880;18.036;2022-08-02T15:59:25;3.65;;;1.55;;
72427;SDS011;60419;48.880;18.036;2022-08-02T16:02:11;2.97;;;1.42;;
72427;SDS011;60419;48.880;18.036;2022-08-02T16:04:58;3.63;;;1.48;;
72427;SDS011;60419;48.880;18.036;2022-08-02T16:07:43;2.42;;;1.27;;
72427;SDS011;60419;48.880;18.036;2022-08-02T16:10:30;1.60;;;1.20;;
72427;SDS011;60419;48.880;18.036;2022-08-02T16:13:15;1.67;;;1.17;;
72427;SDS011;60419;48.880;18.036;2022-08-02T16:16:20;1.83;;;1.30;;
72427;SDS011;60419;48.880;18.036;2022-08-02T16:19:10;3.05;;;1.27;;
72427;SDS011;60419;48.880;18.036;2022-08-02T16:21:55;2.90;;;1.20;;
72427;SDS011;60419;48.880;18.036;2022-08-02T16:24:41;2.85;;;1.38;;
72427;SDS011;60419;48.880;18.036;2022-08-02T16:27:26;3.20;;;1.30;;
72427;SDS011;60419;48.880;18.036;2022-08-02T16:30:12;1.30;;;1.20;;
72427;SDS011;60419;48.880;18.036;2022-08-02T16:32:57;2.80;;;1.30;;
72427;SDS011;60419;48.880;18.036;2022-08-02T16:35:42;1.80;;;1.20;;
72427;SDS011;60419;48.880;18.036;2022-08-02T16:38:28;1.83;;;1.20;;
72427;SDS011;60419;48.880;18.036;2022-08-02T16:41:13;3.60;;;1.20;;
72427;SDS011;60419;48.880;18.036;2022-08-02T16:43:59;4.25;;;1.30;;
72427;SDS011;60419;48.880;18.036;2022-08-02T16:46:44;1.65;;;1.20;;
72427;SDS011;60419;48.880;18.036;2022-08-02T16:49:29;2.60;;;1.33;;
72427;SDS011;60419;48.880;18.036;2022-08-02T16:52:15;3.60;;;1.08;;
72427;SDS011;60419;48.880;18.036;2022-08-02T16:55:01;2.33;;;1.13;;
72427;SDS011;60419;48.880;18.036;2022-08-02T16:57:46;2.55;;;1.27;;
72427;SDS011;60419;48.880;18.036;2022-08-02T17:00:32;1.92;;;1.27;;
72427;SDS011;60419;48.880;18.036;2022-08-02T17:03:18;2.08;;;1.33;;
72427;SDS011;60419;48.880;18.036;2022-08-02T17:06:03;3.60;;;1.40;;